Skip navigation

RAMMB: Regional and Mesoscale Meteorology Branch logo CIRA: Cooperative Institute for Research in the Atmosphere logo NESDIS: NOAA Environmental Satellite, Data, and Information Service logo

Announcement: Please visit out new web application, SLIDER, for every pixel of real-time GOES-16 and Himawari-8 imagery.

EP122006 - Hurricane KRISTY

View model data products for this storm.

New: View wind speed probabilities products for this storm

Forecast Track

Time of Latest Forecast: 200609080000

Forecast Hour Latitude Longitude Intensity
0 15.5 229.1 25
12 15.1 227.7 25
24 15 226.3 25
36 15 225 20
48 15 223.8 20
72 0 0 0
96 0 0 0
120 0 0 0

Forecast Track Archive

About Forecast Track

Track History

Synoptic Time Latitude Longitude Intensity
200609080600 15.5 -130.9 25
200609080000 15.5 -130.9 25
200609071800 16 -130.1 25
200609071200 16.4 -129.8 25
200609070600 16.5 -129.1 25
200609070000 16.5 -128.3 30
200609061800 16.5 -127.3 30
200609061200 16.9 -126.2 35
200609060600 17.1 -124.6 35
200609060000 16.9 -123.3 35
200609051800 16.6 -122.2 40
200609051200 16.3 -121 30
200609050600 16.2 -120.2 30
200609050000 16.2 -119.5 30
200609041800 16.4 -119.1 30
200609041200 16.8 -118.7 30
200609040600 17.5 -118.5 30
200609040000 17.8 -118.3 35
200609031800 17.8 -118.1 35
200609031200 18.1 -118 30
200609030600 18.2 -118.2 30
200609030000 18.4 -118.4 30
200609021800 18.4 -118.7 35
200609021200 18.8 -118.9 35
200609020600 19 -119 40
200609020000 19 -119 40
200609011800 19.2 -118.5 45
200609011200 19.2 -118.2 50
200609010600 19 -117.8 60
200609010330 19 -117.5 60
200609010328 19 -117.5 60
200609010322 19 -117.5 60
200609010315 19 -117.5 60
200609010300 19 -117.5 60
200609010245 19 -117.5 60
200609010230 19 -117.5 60
200609010215 19 -117.5 60
200609010200 19 -117.5 60
200609010145 19 -117.5 60
200609010130 19 -117.5 60
200609010115 18.2 -117 65
200609010100 18.2 -117 65
200609010045 18.2 -117 65
200609010030 18.2 -117 65
200609010015 18.2 -117 65
200609010000 19 -117.5 60
200608312345 18.2 -117 65
200608312330 18.2 -117 65
200608312315 18.2 -117 65
200608312300 18.2 -117 65
200608312257 18.2 -117 65
200608312250 18.2 -117 65
200608312249 18.2 -117 65
200608312247 18.2 -117 65
200608312245 18.2 -117 65
200608312230 18.2 -117 65
200608312215 18.2 -117 65
200608312200 18.2 -117 65
200608312145 18.2 -117 65
200608312130 18.2 -117 65
200608312115 18.2 -117 65
200608312100 18.2 -117 65
200608312045 18.2 -117 65
200608312030 18.2 -117 65
200608312016 18.2 -117 65
200608312000 18.2 -117 65
200608311945 18.2 -117 65
200608311900 17.7 -116.3 65
200608311847 17.7 -116.3 65
200608311845 17.7 -116.3 65
200608311830 17.7 -116.3 65
200608311815 17.7 -116.3 65
200608311800 17.7 -116.3 65
200608311745 17.7 -116.3 65
200608311730 17.7 -116.3 65
200608311715 17.7 -116.3 65
200608311700 17.7 -116.3 65
200608311645 17.7 -116.3 65
200608311630 17.7 -116.3 65
200608311615 17.7 -116.3 65
200608311600 17.7 -116.3 65
200608311545 17.7 -116.3 65
200608311530 17.7 -116.3 65
200608311515 17.7 -116.3 65
200608311500 17.7 -116.3 65
200608311445 17.7 -116.3 65
200608311430 17.7 -116.3 65
200608311415 17.7 -116.3 65
200608311400 17.7 -116.3 65
200608311345 17.7 -116.3 65
200608311330 17.7 -116.3 65
200608311315 17.7 -116.3 65
200608311300 17.4 -115.9 65
200608311245 17.4 -115.9 65
200608311230 17.4 -115.9 65
200608311215 17.4 -115.9 65
200608311200 17.4 -115.9 65
200608311145 17.4 -115.9 65
200608311130 17.4 -115.9 65
200608311115 17.4 -115.9 65
200608311100 17.4 -115.9 65
200608311045 17.4 -115.9 65
200608311030 17.4 -115.9 65
200608311015 17.4 -115.9 65
200608311000 17.4 -115.9 65
200608310945 17.4 -115.9 65
200608310930 17.4 -115.9 65
200608310915 17.4 -115.9 65
200608310900 17.4 -115.9 65
200608310845 17.4 -115.9 65
200608310830 17.4 -115.9 65
200608310815 17.4 -115.9 65
200608310800 17.4 -115.9 65
200608310745 17.4 -115.9 65
200608310730 17.4 -115.9 65
200608310715 17.2 -116 65
200608310701 17.2 -116 65
200608310645 17.2 -116 65
200608310630 17.2 -116 65
200608310615 17.2 -116 65
200608310600 17.2 -116 65
200608310545 17 -115.5 60
200608310530 17 -115.5 60
200608310515 17 -115.5 60
200608310500 17 -115.5 60
200608310445 17 -115.5 60
200608310430 17 -115.5 60
200608310415 17 -115.5 60
200608310400 17 -115.5 60
200608310345 17 -115.5 60
200608310343 17 -115.5 60
200608310339 17 -115.5 60
200608310336 17 -115.5 60
200608310330 17 -115.5 60
200608310321 17 -115.5 60
200608310319 17 -115.5 60
200608310318 17 -115.5 60
200608310315 17 -115.5 60
200608310300 17 -115.5 60
200608310245 17 -115.5 60
200608310230 17 -115.5 60
200608310216 17 -115.5 60
200608310200 17 -115.5 60
200608310145 17 -115.5 60
200608310130 17 -115.5 60
200608310115 17 -115.5 60
200608310100 17 -115.5 60
200608310045 16.8 -115.3 55
200608310030 16.8 -115.3 55
200608310015 16.8 -115.3 55
200608310000 16.8 -115.3 55
200608302345 16.8 -115.3 55
200608302330 16.8 -115.3 55
200608302315 16.8 -115.3 55
200608302300 16.8 -115.3 55
200608302245 16.8 -115.3 55
200608302230 16.8 -115.3 55
200608302215 16.8 -115.3 55
200608302200 16.8 -115.3 55
200608302145 16.8 -115.3 55
200608302130 16.8 -115.3 55
200608302115 16.8 -115.3 55
200608302100 16.8 -115.3 55
200608302045 16.8 -115.3 55
200608302030 16.8 -115.3 55
200608302015 16.8 -115.3 55
200608302000 16.8 -115.3 55
200608301945 16.8 -115.3 55
200608301930 16.8 -115.3 55
200608301915 16.8 -115.3 55
200608301900 16.8 -115.3 55
200608301845 16.5 -114.9 35
200608301830 16.5 -114.9 35
200608301815 16.5 -114.9 35
200608301800 16.5 -114.9 35
200608301745 16.5 -114.9 35
200608301730 16.5 -114.9 35
200608301715 16.5 -114.9 35
200608301700 16.5 -114.9 35
200608301645 16.5 -114.9 35
200608301630 16.5 -114.9 35
200608301615 16.5 -114.9 35
200608301600 16.5 -114.9 35
200608301545 16.5 -114.9 35
200608301530 16.5 -114.9 35
200608301515 16.5 -114.9 35
200608301500 16.5 -114.9 35
200608301445 16.5 -114.9 35
200608301430 16.5 -114.9 35
200608301415 16.5 -114.9 35
200608301400 16.5 -114.9 35
200608301345 16.5 -114.9 35
200608301330 16.5 -114.9 35
200608301315 16.3 -114.5 35
200608301300 16.3 -114.5 35
200608301245 16.3 -114.5 35
200608301230 16.3 -114.5 35
200608301215 16.3 -114.5 35
200608301200 16.3 -114.5 35
200608301145 16.3 -114.5 35
200608301130 16.3 -114.5 35
200608301115 16.3 -114.5 35
200608301100 16.3 -114.5 35
200608301045 16.3 -114.5 35
200608301030 16.3 -114.5 35
200608301015 16.3 -114.5 35
200608301000 16.3 -114.5 35
200608300945 16.3 -114.5 35
200608300930 16.3 -114.5 35
200608300915 16.3 -114.5 35
200608300900 16.3 -114.5 35
200608300845 16.3 -114.5 35
200608300830 16.3 -114.5 35
200608300815 16.3 -114.5 35
200608300800 16.3 -114.5 35
200608300745 16.3 -114.5 35
200608300730 16.3 -114.5 35
200608300715 16 -114 25
200608300700 16 -114 25
200608300645 16 -114 25
200608300630 16 -114 25
200608300615 16 -114 25
200608300600 16 -114 25
200608300545 16 -114 25
200608300530 16 -114 25
200608300515 16 -114 25
200608300500 16 -114 25
200608300445 16 -114 25

About Track History

Enhanced Infrared (IR) Imagery (4 km Mercator)

Loop | Latest Image | Archive | About

Time of This Image: 200609010130

AMSU Microwave 89 GHz Imagery (4 km Mercator)

No Data Available

IR/WV/Microwave RGB (IR [R], WV [G], MI89 [B])

No Data Available

Storm Relative 1 km Geostationary Visible Imagery

No Data Available

2 km Storm Relative IR Imagery with BD Enhancement Curve

No Data Available

Enhanced Infrared (IR) Imagery (1 km Mercator, MODIS/AVHRR)

No Data Available

Day/Night Visible Imagery VIIRS

No Data Available

Day/Night DNB Imagery VIIRS

No Data Available

Enhanced Infrared (IR) VIIRS

No Data Available

Visible Imagery (1 km Mercator, MODIS/AVHRR)

No Data Available

2km Natural Color Imagery

No Data Available

Storm Relative 16 km Geostationary Water Vapor Imagery

No Data Available

Storm Relative 16 km Microwave-Based Total Precipitable Water Imagery

No Data Available

Multiplatform Satellite Surface Wind Analysis (Experimental)

No Data Available

Aircraft-based Tropical Cyclone Surface Wind Analysis

No Data Available

Ocean Heat Content & Forecast Track

No Data Available

Multiplatform Tropical Cyclone Kinetic Energy and Intensity

No Data Available

Multiplatform Tropical Cyclone MSLP and Maximum Winds

No Data Available

Digital Dvorak

No Data Available

AMSU Intensity Time Series

No Data Available

Collocation of AMSU and Dropsonde Soundings

No Data Available

Collocation of ATMS and Dropsonde Soundings

No Data Available

ATMS Maximum Potential Intensity

No Data Available

IR-based TC size

No Data Available

Time Series of the Simplified Holland B parameter calculated from the TC Vitals

No Data Available

Satellite-Based 34-kt Wind Radii Estimates

No Data Available

Satellite-Based 50-kt Wind Radii Estimates

No Data Available

Satellite-Based 64-kt Wind Radii Estimates

No Data Available

Dvorak Fix-Based Wind Radii (Text; ATCF ANAL fixes)

No Data Available

Eye Probability Forecast

No Data Available

AMSU Radial/Height Cross Sections

No Data Available

AMSU Area-Averaged Wind Shears and Layer Means

No Data Available